createdAt,value
2022-09-06T00:00:04.911Z,68.59
2022-09-06T00:01:04.940Z,68.49
2022-09-06T00:02:04.938Z,68.38
2022-09-06T00:03:04.989Z,68.29
2022-09-06T00:04:04.906Z,68.29
2022-09-06T00:05:04.888Z,68.08
2022-09-06T00:06:04.899Z,67.98
2022-09-06T00:07:04.841Z,67.98
2022-09-06T00:08:04.811Z,67.78
2022-09-06T00:09:04.832Z,67.61
2022-09-06T00:10:04.800Z,67.31
2022-09-06T00:11:04.842Z,67.51
2022-09-06T00:12:04.790Z,67.21
2022-09-06T00:13:04.780Z,67.01
2022-09-06T00:14:04.750Z,66.91
2022-09-06T00:15:04.750Z,66.91
2022-09-06T00:16:04.799Z,66.81
2022-09-06T00:17:04.724Z,67.01
2022-09-06T00:18:04.680Z,67.41
2022-09-06T00:19:04.692Z,67.01
2022-09-06T00:20:04.700Z,66.81
2022-09-06T00:21:04.677Z,66.81
2022-09-06T00:22:04.662Z,66.81
2022-09-06T00:23:04.648Z,66.71
2022-09-06T00:24:04.610Z,66.81
2022-09-06T00:25:04.628Z,66.91
2022-09-06T00:26:04.589Z,67.31
2022-09-06T00:27:04.619Z,67.11
2022-09-06T00:28:04.573Z,67.01
2022-09-06T00:29:04.547Z,67.31
2022-09-06T00:30:04.529Z,67.61
2022-09-06T00:31:04.589Z,67.41
2022-09-06T00:32:04.515Z,67.91
2022-09-06T00:33:04.485Z,68.12
2022-09-06T00:34:04.474Z,68.02
2022-09-06T00:35:04.456Z,68.02
2022-09-06T00:36:04.447Z,67.82
2022-09-06T00:37:04.429Z,67.71
2022-09-06T00:38:04.448Z,68.41
2022-09-06T00:39:04.408Z,68.41
2022-09-06T00:40:04.502Z,68.52
2022-09-06T00:41:04.386Z,68.62
2022-09-06T00:42:04.377Z,68.52
2022-09-06T00:43:04.367Z,68.72
2022-09-06T00:44:04.347Z,68.12
2022-09-06T00:45:04.327Z,68.62
2022-09-06T00:46:04.362Z,68.82
2022-09-06T00:47:04.309Z,69.52
2022-09-06T00:48:04.317Z,69.42
2022-09-06T00:49:04.288Z,69.32
2022-09-06T00:50:04.280Z,69.52
2022-09-06T00:51:04.270Z,69.62
2022-09-06T00:52:04.251Z,69.62
2022-09-06T00:53:04.227Z,69.72
2022-09-06T00:54:04.239Z,69.92
2022-09-06T00:55:04.222Z,70.12
2022-09-06T00:56:04.189Z,70.23
2022-09-06T00:57:04.179Z,70.03
2022-09-06T00:58:04.167Z,69.82
2022-09-06T00:59:04.156Z,70.12
2022-09-06T01:00:04.148Z,70.12
2022-09-06T01:01:04.128Z,70.23
2022-09-06T01:02:04.245Z,70.23
2022-09-06T01:03:04.097Z,70.23
2022-09-06T01:04:04.112Z,70.23
2022-09-06T01:05:04.075Z,70.83
2022-09-06T01:06:04.066Z,70.43
2022-09-06T01:07:04.048Z,70.63
2022-09-06T01:08:04.050Z,70.23
2022-09-06T01:09:04.105Z,65.50
2022-09-06T01:10:04.008Z,64.70
2022-09-06T01:11:03.996Z,63.06
2022-09-06T01:12:03.988Z,61.05
2022-09-06T01:13:03.967Z,60.82
2022-09-06T01:14:03.985Z,59.39
2022-09-06T01:15:03.961Z,59.49
2022-09-06T01:16:03.951Z,59.39
2022-09-06T01:17:03.920Z,59.69
2022-09-06T01:18:03.915Z,60.10
2022-09-06T01:19:03.913Z,59.79
2022-09-06T01:20:03.899Z,59.77
2022-09-06T01:21:03.871Z,59.86
2022-09-06T01:22:03.870Z,60.57
2022-09-06T01:23:03.846Z,60.66
2022-09-06T01:24:03.857Z,60.27
2022-09-06T01:25:03.816Z,60.36
2022-09-06T01:26:03.816Z,60.24
2022-09-06T01:27:03.794Z,60.64
2022-09-06T01:28:03.784Z,60.33
2022-09-06T01:29:03.783Z,60.14
2022-09-06T01:30:03.754Z,60.44
2022-09-06T01:31:03.832Z,60.33
2022-09-06T01:32:03.742Z,60.14
2022-09-06T01:33:03.714Z,59.74
2022-09-06T01:34:03.713Z,59.83
2022-09-06T01:35:03.685Z,59.74
2022-09-06T01:36:03.675Z,59.13
2022-09-06T01:37:10.453Z,59.33
2022-09-06T01:38:04.667Z,59.03
2022-09-06T01:39:03.643Z,58.83
2022-09-06T01:40:03.695Z,58.61
2022-09-06T01:41:03.613Z,58.50
2022-09-06T01:42:03.613Z,58.70
2022-09-06T01:43:05.997Z,58.81
2022-09-06T01:44:03.597Z,58.70
2022-09-06T01:45:03.565Z,59.20
2022-09-06T01:46:03.581Z,59.00
2022-09-06T01:47:03.534Z,59.11
2022-09-06T01:48:03.522Z,59.31
2022-09-06T01:49:03.516Z,59.64
2022-09-06T01:50:03.505Z,59.94
2022-09-06T01:51:03.473Z,60.33
2022-09-06T01:52:03.472Z,60.84
2022-09-06T01:53:03.474Z,61.04
2022-09-06T01:54:03.461Z,61.44
2022-09-06T01:55:03.442Z,61.84
2022-09-06T01:56:03.424Z,62.34
2022-09-06T01:57:03.402Z,62.24
2022-09-06T01:58:03.392Z,62.34
2022-09-06T01:59:03.525Z,62.74
2022-09-06T02:00:03.374Z,62.84
2022-09-06T02:01:03.415Z,62.84
2022-09-06T02:02:03.375Z,62.94
2022-09-06T02:03:03.332Z,63.34
2022-09-06T02:04:03.336Z,63.47
2022-09-06T02:05:03.302Z,63.47
2022-09-06T02:06:03.290Z,63.67
2022-09-06T02:07:03.279Z,63.78
2022-09-06T02:08:03.283Z,63.98
2022-09-06T02:09:03.260Z,64.18
2022-09-06T02:10:03.243Z,64.28
2022-09-06T02:11:03.233Z,64.48
2022-09-06T02:12:03.212Z,64.58
2022-09-06T02:13:03.193Z,64.88
2022-09-06T02:14:03.193Z,65.18
2022-09-06T02:15:03.170Z,65.18
2022-09-06T02:16:03.173Z,65.38
2022-09-06T02:17:03.175Z,65.68
2022-09-06T02:18:03.134Z,65.68
2022-09-06T02:19:03.130Z,65.88
2022-09-06T02:20:03.111Z,65.98
2022-09-06T02:21:03.091Z,66.08
2022-09-06T02:22:03.095Z,67.49
2022-09-06T02:23:03.070Z,67.79
2022-09-06T02:24:03.070Z,68.49
2022-09-06T02:25:03.050Z,69.32
2022-09-06T02:26:03.031Z,70.73
2022-09-06T02:27:03.023Z,71.13
2022-09-06T02:28:03.018Z,70.93
2022-09-06T02:29:03.001Z,70.53
2022-09-06T02:30:02.997Z,71.43
2022-09-06T02:31:02.992Z,72.03
2022-09-06T02:32:02.950Z,72.03
2022-09-06T02:33:02.941Z,72.13
2022-09-06T02:34:02.942Z,71.33
2022-09-06T02:35:02.921Z,71.47
2022-09-06T02:36:02.900Z,71.86
2022-09-06T02:37:02.898Z,72.06
2022-09-06T02:38:02.871Z,72.37
2022-09-06T02:39:02.880Z,72.67
2022-09-06T02:40:02.913Z,72.37
2022-09-06T02:41:02.839Z,72.47
2022-09-06T02:42:02.831Z,72.87
2022-09-06T02:43:02.812Z,73.10
2022-09-06T02:44:02.792Z,73.30
2022-09-06T02:45:02.796Z,73.71
2022-09-06T02:46:02.807Z,74.01
2022-09-06T02:47:02.860Z,74.01
2022-09-06T02:48:02.750Z,74.41
2022-09-06T02:49:02.738Z,74.74
2022-09-06T02:50:02.734Z,74.74
2022-09-06T02:51:02.720Z,75.15
2022-09-06T02:52:02.702Z,75.45
2022-09-06T02:53:02.699Z,75.75
2022-09-06T02:54:02.669Z,75.95
2022-09-06T02:55:02.650Z,75.95
2022-09-06T02:56:02.646Z,75.75
2022-09-06T02:57:02.632Z,76.15
2022-09-06T02:58:02.633Z,76.25
2022-09-06T02:59:02.607Z,76.65
2022-09-06T03:00:02.588Z,76.56
2022-09-06T03:01:02.599Z,76.96
2022-09-06T03:02:02.598Z,77.26
2022-09-06T03:03:02.628Z,77.36
2022-09-06T03:04:02.538Z,77.16
2022-09-06T03:05:02.521Z,77.26
2022-09-06T03:06:02.517Z,77.06
2022-09-06T03:07:02.497Z,76.76
2022-09-06T03:08:02.499Z,76.45
2022-09-06T03:09:02.491Z,76.56
2022-09-06T03:10:02.474Z,76.69
2022-09-06T03:11:02.450Z,76.09
2022-09-06T03:12:02.437Z,75.89
2022-09-06T03:13:02.418Z,76.29
2022-09-06T03:14:02.438Z,76.79
2022-09-06T03:15:02.397Z,76.69
2022-09-06T03:16:02.386Z,76.59
2022-09-06T03:17:02.410Z,76.09
2022-09-06T03:18:02.387Z,76.19
2022-09-06T03:19:02.364Z,75.79
2022-09-06T03:20:02.355Z,75.68
2022-09-06T03:21:02.326Z,75.79
2022-09-06T03:22:02.317Z,76.09
2022-09-06T03:23:02.286Z,76.19
2022-09-06T03:24:02.286Z,75.79
2022-09-06T03:25:02.284Z,75.79
2022-09-06T03:26:02.265Z,76.09
2022-09-06T03:27:02.239Z,76.59
2022-09-06T03:28:02.234Z,76.89
2022-09-06T03:29:02.218Z,77.00
2022-09-06T03:30:02.204Z,77.00
2022-09-06T03:31:02.266Z,77.20
2022-09-06T03:32:02.197Z,76.79
2022-09-06T03:33:03.035Z,76.59
2022-09-06T03:34:02.155Z,76.49
2022-09-06T03:35:02.145Z,76.29
2022-09-06T03:36:02.125Z,76.59
2022-09-06T03:37:02.204Z,76.59
2022-09-06T03:38:02.105Z,76.59
2022-09-06T03:39:02.096Z,75.99
2022-09-06T03:40:02.129Z,75.68
2022-09-06T03:41:02.066Z,75.89
2022-09-06T03:42:02.076Z,75.79
2022-09-06T03:43:02.045Z,75.68
2022-09-06T03:44:02.024Z,75.89
2022-09-06T03:45:02.007Z,75.79
2022-09-06T03:46:02.067Z,75.99
2022-09-06T03:47:01.984Z,76.29
2022-09-06T03:48:01.994Z,76.29
2022-09-06T03:49:01.959Z,76.29
2022-09-06T03:50:01.953Z,76.39
2022-09-06T03:51:01.938Z,76.59
2022-09-06T03:52:01.936Z,75.89
2022-09-06T03:53:01.913Z,75.59
2022-09-06T03:54:01.915Z,75.59
2022-09-06T03:55:01.884Z,76.09
2022-09-06T03:56:01.877Z,76.19
2022-09-06T03:57:01.857Z,76.39
2022-09-06T03:58:01.843Z,76.19
2022-09-06T03:59:01.844Z,76.39
2022-09-06T04:00:01.823Z,76.69
2022-09-06T04:01:01.914Z,76.69
2022-09-06T04:02:01.827Z,76.39
2022-09-06T04:03:02.081Z,76.69
2022-09-06T04:04:01.775Z,76.79
2022-09-06T04:05:01.854Z,77.09
2022-09-06T04:06:01.733Z,76.89
2022-09-06T04:07:01.727Z,76.89
2022-09-06T04:08:01.734Z,77.00
2022-09-06T04:09:01.705Z,77.09
2022-09-06T04:10:01.703Z,77.09
2022-09-06T04:11:01.682Z,77.29
2022-09-06T04:12:01.668Z,77.90
2022-09-06T04:13:01.653Z,77.80
2022-09-06T04:14:01.643Z,77.63
2022-09-06T04:15:01.624Z,77.83
2022-09-06T04:16:01.635Z,77.83
2022-09-06T04:17:01.641Z,78.74
2022-09-06T04:18:04.923Z,78.94
2022-09-06T04:19:02.575Z,79.24
2022-09-06T04:20:01.566Z,79.85
2022-09-06T04:21:01.545Z,79.35
2022-09-06T04:22:01.562Z,78.84
2022-09-06T04:23:01.514Z,78.64
2022-09-06T04:24:01.509Z,78.94
2022-09-06T04:25:01.492Z,78.94
2022-09-06T04:26:01.482Z,78.64
2022-09-06T04:27:01.473Z,78.74
2022-09-06T04:28:01.469Z,78.44
2022-09-06T04:29:01.444Z,77.53
2022-09-06T04:30:01.431Z,77.83
2022-09-06T04:31:04.706Z,77.63
2022-09-06T04:32:01.482Z,77.43
2022-09-06T04:33:01.420Z,77.53
2022-09-06T04:34:01.387Z,77.33
2022-09-06T04:35:01.371Z,77.33
2022-09-06T04:36:01.368Z,77.13
2022-09-06T04:37:01.341Z,77.33
2022-09-06T04:38:01.339Z,77.03
2022-09-06T04:39:01.340Z,77.23
2022-09-06T04:40:01.354Z,76.93
2022-09-06T04:41:01.291Z,76.53
2022-09-06T04:42:01.273Z,76.63
2022-09-06T04:43:01.271Z,76.63
2022-09-06T04:44:01.249Z,76.73
2022-09-06T04:45:01.250Z,76.73
2022-09-06T04:46:01.300Z,76.93
2022-09-06T04:47:01.211Z,77.13
2022-09-06T04:48:01.200Z,76.83
2022-09-06T04:49:01.201Z,76.83
2022-09-06T04:50:01.191Z,76.93
2022-09-06T04:51:01.170Z,77.03
2022-09-06T04:52:01.150Z,76.53
2022-09-06T04:53:01.140Z,76.73
2022-09-06T04:54:01.119Z,76.63
2022-09-06T04:55:01.110Z,76.12
2022-09-06T04:56:01.104Z,76.23
2022-09-06T04:57:01.091Z,76.63
2022-09-06T04:58:01.070Z,76.43
2022-09-06T04:59:01.061Z,76.53
2022-09-06T05:00:01.040Z,76.83
2022-09-06T05:01:01.117Z,76.93
2022-09-06T05:02:01.078Z,76.73
2022-09-06T05:03:01.009Z,76.83
2022-09-06T05:04:00.991Z,76.73
2022-09-06T05:05:00.979Z,76.83
2022-09-06T05:06:00.960Z,77.03
2022-09-06T05:07:00.980Z,77.03
2022-09-06T05:08:00.938Z,77.13
2022-09-06T05:09:00.929Z,76.67
2022-09-06T05:10:00.912Z,76.56
2022-09-06T05:11:00.899Z,76.12
2022-09-06T05:12:00.909Z,76.16
2022-09-06T05:13:00.873Z,75.76
2022-09-06T05:14:00.858Z,75.72
2022-09-06T05:15:00.861Z,76.23
2022-09-06T05:16:00.864Z,76.73
2022-09-06T05:17:00.828Z,76.63
2022-09-06T05:18:00.828Z,76.43
2022-09-06T05:19:00.801Z,75.92
2022-09-06T05:20:00.806Z,75.62
2022-09-06T05:21:00.768Z,75.02
2022-09-06T05:22:00.769Z,74.92
2022-09-06T05:23:00.747Z,74.82
2022-09-06T05:24:00.797Z,75.32
2022-09-06T05:25:00.726Z,75.72
2022-09-06T05:26:00.708Z,75.32
2022-09-06T05:27:00.944Z,75.22
2022-09-06T05:28:00.678Z,75.32
2022-09-06T05:29:00.691Z,75.32
2022-09-06T05:30:00.678Z,75.32
2022-09-06T05:31:00.640Z,75.62
2022-09-06T05:32:00.680Z,75.52
2022-09-06T05:33:00.615Z,75.32
2022-09-06T05:34:00.620Z,75.32
2022-09-06T05:35:00.610Z,75.62
2022-09-06T05:36:00.587Z,75.52
2022-09-06T05:37:00.573Z,75.32
2022-09-06T05:38:00.569Z,75.32
2022-09-06T05:39:00.559Z,75.42
2022-09-06T05:40:00.610Z,75.12
2022-09-06T05:41:00.566Z,75.42
2022-09-06T05:42:00.506Z,75.32
2022-09-06T05:43:00.492Z,74.92
2022-09-06T05:44:00.477Z,74.82
2022-09-06T05:45:00.457Z,74.72
2022-09-06T05:46:00.575Z,74.52
2022-09-06T05:47:00.464Z,74.41
2022-09-06T05:48:00.435Z,74.52
2022-09-06T05:49:00.420Z,74.82
2022-09-06T05:50:00.407Z,74.32
2022-09-06T05:51:00.385Z,74.11
2022-09-06T05:52:00.383Z,74.11
2022-09-06T05:53:00.376Z,73.91
2022-09-06T05:54:00.349Z,73.61
2022-09-06T05:55:00.327Z,73.38
2022-09-06T05:56:00.328Z,73.38
2022-09-06T05:57:00.306Z,73.27
2022-09-06T05:58:00.311Z,73.38
2022-09-06T05:59:00.306Z,73.18
2022-09-06T06:00:00.277Z,73.18
2022-09-06T06:01:00.281Z,73.07
2022-09-06T06:02:03.210Z,73.18
2022-09-06T06:03:01.235Z,73.18
2022-09-06T06:04:00.225Z,73.07
2022-09-06T06:05:00.216Z,72.87
2022-09-06T06:06:00.193Z,73.38
2022-09-06T06:07:00.178Z,73.38
2022-09-06T06:08:00.165Z,73.47
2022-09-06T06:09:00.295Z,73.47
2022-09-06T06:10:00.167Z,73.58
2022-09-06T06:11:00.148Z,73.78
2022-09-06T06:12:00.115Z,73.88
2022-09-06T06:13:00.103Z,73.58
2022-09-06T06:14:00.110Z,73.47
2022-09-06T06:15:00.089Z,73.88
2022-09-06T06:16:00.113Z,73.88
2022-09-06T06:17:00.110Z,74.08
2022-09-06T06:18:00.044Z,74.38
2022-09-06T06:19:00.024Z,74.48
2022-09-06T06:20:00.016Z,73.88
2022-09-06T06:20:59.995Z,74.08
2022-09-06T06:21:59.995Z,73.98
2022-09-06T06:22:59.974Z,74.18
2022-09-06T06:23:59.964Z,74.58
2022-09-06T06:24:59.946Z,74.38
2022-09-06T06:25:59.934Z,74.58
2022-09-06T06:26:59.936Z,74.48
2022-09-06T06:27:59.924Z,74.08
2022-09-06T06:28:59.893Z,73.74
2022-09-06T06:29:59.885Z,73.74
2022-09-06T06:30:59.863Z,73.74
2022-09-06T06:31:59.893Z,73.74
2022-09-06T06:32:59.863Z,73.24
2022-09-06T06:33:59.831Z,73.04
2022-09-06T06:34:59.814Z,73.00
2022-09-06T06:35:59.821Z,72.40
2022-09-06T06:36:59.795Z,72.50
2022-09-06T06:37:59.794Z,72.20
2022-09-06T06:38:59.780Z,71.86
2022-09-06T06:39:59.778Z,71.97
2022-09-06T06:41:03.301Z,72.06
2022-09-06T06:42:00.735Z,71.86
2022-09-06T06:42:59.720Z,71.77
2022-09-06T06:43:59.704Z,71.77
2022-09-06T06:44:59.701Z,71.66
2022-09-06T06:45:59.755Z,71.33
2022-09-06T06:46:59.668Z,71.03
2022-09-06T06:47:59.660Z,70.73
2022-09-06T06:48:59.636Z,71.03
2022-09-06T06:49:59.642Z,71.23
2022-09-06T06:50:59.610Z,70.79
2022-09-06T06:51:59.594Z,70.50
2022-09-06T06:52:59.592Z,69.99
2022-09-06T06:53:59.583Z,69.79
2022-09-06T06:54:59.559Z,69.76
2022-09-06T06:55:59.561Z,69.86
2022-09-06T06:56:59.530Z,69.76
2022-09-06T06:57:59.531Z,69.66
2022-09-06T06:58:59.515Z,69.32
2022-09-06T06:59:59.496Z,69.23
2022-09-06T07:00:59.542Z,69.32
2022-09-06T07:01:59.733Z,68.82
2022-09-06T07:02:59.471Z,68.89
2022-09-06T07:03:59.448Z,68.09
2022-09-06T07:04:59.496Z,67.89
2022-09-06T07:06:14.619Z,68.09
2022-09-06T07:08:00.400Z,67.66
2022-09-06T07:08:59.380Z,67.46
2022-09-06T07:11:00.361Z,67.02
2022-09-06T07:11:59.339Z,66.82
2022-09-06T07:12:59.339Z,66.02
2022-09-06T07:13:59.320Z,66.02
2022-09-06T07:14:59.308Z,64.99
2022-09-06T07:15:59.328Z,65.49
2022-09-06T07:16:59.280Z,64.89
2022-09-06T07:17:59.477Z,64.69
2022-09-06T07:18:59.250Z,64.66
2022-09-06T07:20:15.126Z,64.06
2022-09-06T07:22:04.403Z,64.63
2022-09-06T07:24:08.224Z,63.10
2022-09-06T07:25:00.178Z,62.90
2022-09-06T07:25:59.169Z,62.77
2022-09-06T07:28:03.930Z,61.38
2022-09-06T07:29:00.138Z,61.15
2022-09-06T07:29:59.108Z,60.45
2022-09-06T07:30:59.123Z,60.45
2022-09-06T07:32:14.412Z,60.62
2022-09-06T07:33:00.059Z,60.72
2022-09-06T07:33:59.059Z,59.22
2022-09-06T07:34:59.058Z,59.59
2022-09-06T07:35:59.055Z,59.69
2022-09-06T07:36:59.009Z,59.09
2022-09-06T07:37:59.009Z,58.97
2022-09-06T07:38:58.989Z,59.36
2022-09-06T07:39:59.013Z,58.27
2022-09-06T07:40:59.039Z,58.34
2022-09-06T07:41:58.948Z,57.84
2022-09-06T07:42:58.941Z,58.44
2022-09-06T07:43:58.939Z,57.92
2022-09-06T07:44:58.918Z,58.01
2022-09-06T07:45:58.931Z,57.02
2022-09-06T07:48:00.003Z,56.99
2022-09-06T07:48:58.867Z,56.30
2022-09-06T07:50:59.858Z,56.49
2022-09-06T07:51:59.000Z,55.67
2022-09-06T07:54:26.123Z,55.38
2022-09-06T07:54:59.787Z,54.95
2022-09-06T07:55:58.781Z,54.16
2022-09-06T07:56:58.768Z,55.74
2022-09-06T07:57:58.756Z,54.16
2022-09-06T07:58:58.741Z,53.66
2022-09-06T07:59:58.717Z,54.46
2022-09-06T08:00:58.735Z,53.33
2022-09-06T08:01:58.754Z,53.73
2022-09-06T08:02:58.693Z,54.13
2022-09-06T08:03:58.668Z,53.63
2022-09-06T08:04:58.666Z,53.41
2022-09-06T08:06:13.974Z,52.81
2022-09-06T08:08:59.812Z,52.19
2022-09-06T08:09:58.605Z,53.66
2022-09-06T08:10:58.586Z,51.97
2022-09-06T08:11:58.577Z,51.47
2022-09-06T08:12:58.555Z,51.94
2022-09-06T08:13:58.553Z,51.54
2022-09-06T08:14:58.536Z,50.76
2022-09-06T08:15:58.577Z,50.46
2022-09-06T08:16:58.510Z,49.76
2022-09-06T08:17:58.551Z,50.63
2022-09-06T08:18:58.477Z,49.64
2022-09-06T08:19:58.475Z,49.54
2022-09-06T08:20:58.465Z,48.72
2022-09-06T08:21:58.455Z,48.72
2022-09-06T08:22:58.427Z,49.12
2022-09-06T08:23:58.417Z,48.23
2022-09-06T08:24:58.407Z,48.23
2022-09-06T08:25:58.407Z,49.62
2022-09-06T08:26:58.387Z,48.63
2022-09-06T08:27:58.376Z,49.19
2022-09-06T08:28:58.346Z,49.49
2022-09-06T08:29:58.356Z,48.97
2022-09-06T08:30:58.326Z,47.39
2022-09-06T08:31:58.382Z,47.56
2022-09-06T08:32:58.309Z,47.17
2022-09-06T08:33:58.307Z,47.37
2022-09-06T08:34:58.286Z,47.77
2022-09-06T08:35:58.273Z,47.27
2022-09-06T08:36:58.253Z,46.88
2022-09-06T08:37:58.248Z,47.37
2022-09-06T08:38:58.227Z,47.77
2022-09-06T08:39:58.256Z,47.77
2022-09-06T08:40:58.207Z,47.25
2022-09-06T08:41:58.186Z,47.84
2022-09-06T08:42:58.186Z,47.84
2022-09-06T08:44:59.157Z,47.15
2022-09-06T08:45:58.144Z,46.33
2022-09-06T08:46:58.160Z,46.45
2022-09-06T08:47:58.126Z,46.95
2022-09-06T08:48:58.107Z,46.85
2022-09-06T08:49:58.098Z,47.42
2022-09-06T08:50:58.086Z,47.13
2022-09-06T08:51:58.065Z,46.53
2022-09-06T08:53:59.059Z,45.72
2022-09-06T08:54:58.016Z,44.64
2022-09-06T08:55:58.027Z,45.42
2022-09-06T08:56:57.996Z,44.93
2022-09-06T08:57:57.986Z,44.95
2022-09-06T08:58:57.967Z,44.97
2022-09-06T08:59:57.975Z,45.67
2022-09-06T09:00:57.966Z,46.75
2022-09-06T09:01:57.990Z,45.94
2022-09-06T09:02:57.915Z,45.84
2022-09-06T09:03:57.908Z,45.25
2022-09-06T09:04:57.915Z,44.46
2022-09-06T09:05:57.885Z,44.93
2022-09-06T09:06:57.868Z,46.31
2022-09-06T09:07:57.858Z,44.64
2022-09-06T09:08:57.838Z,43.82
2022-09-06T09:09:57.835Z,43.43
2022-09-06T09:10:57.814Z,43.73
2022-09-06T09:11:57.797Z,44.61
2022-09-06T09:12:57.799Z,44.69
2022-09-06T09:13:57.785Z,44.18
2022-09-06T09:14:57.774Z,42.58
2022-09-06T09:15:57.806Z,42.77
2022-09-06T09:16:57.737Z,43.56
2022-09-06T09:17:57.725Z,43.37
2022-09-06T09:18:57.720Z,43.84
2022-09-06T09:19:57.716Z,42.07
2022-09-06T09:20:57.685Z,41.86
2022-09-06T09:21:57.670Z,41.27
2022-09-06T09:22:57.656Z,41.39
2022-09-06T09:23:57.645Z,42.08
2022-09-06T09:24:57.645Z,43.07
2022-09-06T09:25:57.625Z,42.47
2022-09-06T09:26:57.605Z,42.36
2022-09-06T09:27:57.656Z,42.14
2022-09-06T09:28:57.577Z,42.93
2022-09-06T09:30:58.581Z,42.41
2022-09-06T09:31:57.597Z,41.90
2022-09-06T09:32:57.535Z,41.59
2022-09-06T09:33:57.525Z,40.01
2022-09-06T09:34:57.524Z,41.27
2022-09-06T09:35:57.507Z,39.52
2022-09-06T09:38:04.896Z,41.00
2022-09-06T09:38:58.456Z,40.03
2022-09-06T09:39:57.532Z,40.92
2022-09-06T09:40:57.438Z,42.28
2022-09-06T09:41:57.425Z,41.29
2022-09-06T09:42:57.415Z,40.29
2022-09-06T09:44:00.098Z,40.27
2022-09-06T09:44:58.395Z,39.88
2022-09-06T09:45:57.376Z,39.48
2022-09-06T09:46:57.375Z,39.00
2022-09-06T09:47:57.346Z,39.68
2022-09-06T09:48:57.337Z,39.31
2022-09-06T09:49:57.336Z,39.21
2022-09-06T09:50:57.307Z,39.80
2022-09-06T09:51:57.306Z,39.90
2022-09-06T09:52:57.286Z,39.09
2022-09-06T09:53:57.273Z,40.08
2022-09-06T09:54:57.268Z,39.88
2022-09-06T09:55:57.249Z,39.76
2022-09-06T09:56:57.234Z,39.66
2022-09-06T09:57:57.229Z,39.06
2022-09-06T09:58:57.206Z,39.06
2022-09-06T09:59:57.218Z,39.84
2022-09-06T10:00:57.203Z,38.27
2022-09-06T10:01:57.183Z,40.03
2022-09-06T10:02:57.204Z,38.54
2022-09-06T10:04:58.146Z,38.13
2022-09-06T10:06:03.116Z,38.53
2022-09-06T10:07:13.368Z,38.02
2022-09-06T10:07:58.140Z,37.33
2022-09-06T10:08:57.156Z,37.82
2022-09-06T10:09:57.164Z,38.04
2022-09-06T10:10:57.057Z,38.60
2022-09-06T10:11:57.047Z,39.27
2022-09-06T10:12:57.040Z,38.67
2022-09-06T10:13:57.027Z,36.40
2022-09-06T10:14:57.028Z,36.98
2022-09-06T10:15:57.027Z,35.69
2022-09-06T10:16:56.989Z,36.77
2022-09-06T10:17:57.027Z,36.26
2022-09-06T10:18:56.956Z,35.58
2022-09-06T10:19:56.967Z,36.15
2022-09-06T10:20:56.936Z,36.05
2022-09-06T10:21:56.932Z,36.13
2022-09-06T10:22:56.916Z,34.77
2022-09-06T10:24:57.906Z,34.18
2022-09-06T10:25:56.875Z,34.19
2022-09-06T10:26:56.871Z,36.05
2022-09-06T10:28:12.268Z,35.09
2022-09-06T10:28:57.837Z,35.97
2022-09-06T10:29:56.847Z,34.89
2022-09-06T10:30:56.854Z,34.13
2022-09-06T10:31:56.817Z,36.57
2022-09-06T10:32:56.793Z,36.28
2022-09-06T10:33:56.776Z,36.55
2022-09-06T10:34:56.776Z,34.41
2022-09-06T10:35:56.747Z,35.48
2022-09-06T10:36:56.750Z,35.97
2022-09-06T10:37:56.738Z,34.48
2022-09-06T10:39:00.363Z,35.45
2022-09-06T10:39:57.770Z,34.67
2022-09-06T10:40:56.697Z,34.55
2022-09-06T10:41:56.687Z,33.87
2022-09-06T10:42:56.677Z,33.48
2022-09-06T10:43:56.649Z,34.16
2022-09-06T10:44:56.659Z,34.55
2022-09-06T10:45:56.637Z,35.14
2022-09-06T10:46:56.636Z,33.87
2022-09-06T10:47:56.597Z,33.18
2022-09-06T10:48:56.591Z,34.65
2022-09-06T10:49:56.587Z,36.41
2022-09-06T10:50:56.558Z,34.83
2022-09-06T10:51:56.566Z,35.61
2022-09-06T10:52:56.538Z,33.83
2022-09-06T10:53:56.536Z,34.79
2022-09-06T10:54:56.528Z,33.92
2022-09-06T10:55:59.769Z,32.82
2022-09-06T10:56:57.487Z,33.61
2022-09-06T10:59:57.512Z,34.78
2022-09-06T11:00:56.439Z,34.00
2022-09-06T11:01:56.509Z,33.01
2022-09-06T11:04:00.304Z,32.53
2022-09-06T11:05:57.388Z,33.88
2022-09-06T11:06:56.367Z,33.67
2022-09-06T11:08:58.280Z,33.26
2022-09-06T11:09:56.338Z,33.46
2022-09-06T11:10:56.318Z,33.86
2022-09-06T11:11:56.308Z,33.09
2022-09-06T11:12:56.299Z,33.65
2022-09-06T11:13:56.287Z,32.68
2022-09-06T11:14:56.278Z,33.36
2022-09-06T11:15:56.321Z,32.68
2022-09-06T11:16:56.238Z,33.17
2022-09-06T11:17:56.235Z,33.36
2022-09-06T11:18:56.218Z,32.78
2022-09-06T11:19:56.219Z,32.78
2022-09-06T11:20:56.196Z,32.20
2022-09-06T11:21:56.178Z,33.18
2022-09-06T11:22:56.168Z,31.84
2022-09-06T11:23:56.159Z,32.81
2022-09-06T11:24:56.158Z,33.78
2022-09-06T11:25:56.139Z,32.52
2022-09-06T11:26:56.118Z,32.32
2022-09-06T11:27:58.093Z,32.42
2022-09-06T11:28:56.100Z,33.98
2022-09-06T11:29:56.099Z,33.18
2022-09-06T11:30:56.140Z,33.38
2022-09-06T11:32:57.051Z,32.57
2022-09-06T11:33:59.490Z,31.98
2022-09-06T11:34:57.039Z,31.51
2022-09-06T11:35:56.010Z,32.71
2022-09-06T11:36:56.000Z,31.93
2022-09-06T11:37:56.000Z,33.49
2022-09-06T11:38:55.989Z,34.35
2022-09-06T11:40:56.948Z,31.50
2022-09-06T11:41:55.939Z,31.03
2022-09-06T11:42:55.930Z,32.39
2022-09-06T11:43:55.927Z,32.18
2022-09-06T11:44:55.926Z,31.79
2022-09-06T11:45:55.913Z,31.98
2022-09-06T11:46:55.932Z,32.84
2022-09-06T11:47:55.870Z,31.85
2022-09-06T11:48:55.858Z,31.27
2022-09-06T11:49:55.848Z,31.37
2022-09-06T11:50:55.830Z,31.08
2022-09-06T11:51:55.810Z,31.48
2022-09-06T11:52:55.800Z,32.65
2022-09-06T11:53:55.829Z,31.11
2022-09-06T11:54:55.799Z,32.97
2022-09-06T11:55:55.769Z,32.78
2022-09-06T11:56:55.765Z,32.47
2022-09-06T11:57:55.740Z,32.86
2022-09-06T11:58:55.739Z,31.01
2022-09-06T11:59:55.729Z,31.30
2022-09-06T12:00:55.720Z,31.71
2022-09-06T12:01:55.710Z,33.06
2022-09-06T12:04:04.880Z,32.26
2022-09-06T12:04:59.681Z,30.83
2022-09-06T12:05:55.651Z,31.82
2022-09-06T12:06:55.652Z,34.74
2022-09-06T12:07:55.630Z,34.05
2022-09-06T12:08:55.630Z,31.38
2022-09-06T12:09:55.620Z,31.76
2022-09-06T12:10:55.607Z,31.97
2022-09-06T12:11:55.592Z,31.38
2022-09-06T12:12:55.569Z,31.57
2022-09-06T12:13:55.568Z,32.05
2022-09-06T12:14:55.567Z,30.21
2022-09-06T12:15:55.594Z,30.43
2022-09-06T12:16:55.520Z,32.76
2022-09-06T12:17:55.516Z,34.01
2022-09-06T12:18:55.511Z,30.71
2022-09-06T12:19:55.504Z,31.19
2022-09-06T12:20:55.493Z,32.26
2022-09-06T12:21:55.474Z,31.00
2022-09-06T12:22:55.460Z,32.84
2022-09-06T12:23:55.441Z,32.08
2022-09-06T12:24:55.441Z,30.52
2022-09-06T12:25:55.431Z,31.30
2022-09-06T12:26:56.101Z,31.03
2022-09-06T12:27:55.405Z,31.53
2022-09-06T12:28:55.391Z,31.74
2022-09-06T12:29:55.391Z,34.66
2022-09-06T12:30:55.410Z,32.62
2022-09-06T12:31:55.355Z,31.53
2022-09-06T12:32:55.349Z,32.32
2022-09-06T12:33:55.334Z,31.74
2022-09-06T12:35:56.603Z,31.54
2022-09-06T12:36:55.291Z,32.15
2022-09-06T12:37:55.282Z,31.76
2022-09-06T12:38:55.271Z,32.53
2022-09-06T12:39:55.332Z,33.70
2022-09-06T12:40:55.260Z,32.53
2022-09-06T12:41:55.232Z,31.66
2022-09-06T12:42:55.250Z,33.51
2022-09-06T12:43:55.211Z,32.24
2022-09-06T12:44:55.226Z,33.31
2022-09-06T12:45:55.191Z,33.11
2022-09-06T12:46:55.181Z,33.49
2022-09-06T12:47:55.165Z,33.77
2022-09-06T12:48:55.152Z,31.81
2022-09-06T12:49:55.183Z,32.78
2022-09-06T12:50:55.132Z,33.73
2022-09-06T12:51:55.114Z,31.79
2022-09-06T12:52:55.113Z,31.30
2022-09-06T12:53:55.104Z,32.37
2022-09-06T12:54:55.103Z,31.77
2022-09-06T12:55:55.074Z,31.68
2022-09-06T12:56:55.062Z,30.32
2022-09-06T12:57:55.125Z,31.22
2022-09-06T12:58:55.044Z,31.51
2022-09-06T12:59:55.046Z,31.11
2022-09-06T13:00:55.023Z,31.88
2022-09-06T13:01:55.089Z,33.04
2022-09-06T13:02:55.071Z,30.69
2022-09-06T13:03:54.984Z,30.61
2022-09-06T13:04:55.005Z,31.01
2022-09-06T13:05:54.963Z,30.74
2022-09-06T13:06:54.961Z,32.99
2022-09-06T13:07:54.933Z,31.92
2022-09-06T13:08:54.940Z,31.41
2022-09-06T13:09:54.923Z,33.26
2022-09-06T13:10:54.904Z,31.88
2022-09-06T13:11:54.904Z,32.08
2022-09-06T13:12:54.873Z,32.17
2022-09-06T13:13:54.867Z,32.26
2022-09-06T13:14:54.879Z,31.66
2022-09-06T13:15:54.879Z,32.13
2022-09-06T13:16:54.832Z,32.13